sensor_id;sensor_type;location;lat;lon;timestamp;pressure;altitude;pressure_sealevel;temperature;humidity
20612;BME280;10465;42.686;23.364;2023-05-11T00:00:07;95178.34;;;11.17;74.97
20612;BME280;10465;42.686;23.364;2023-05-11T00:02:34;95207.88;;;11.24;75.59
20612;BME280;10465;42.686;23.364;2023-05-11T00:05:00;95224.31;;;11.35;75.39
20612;BME280;10465;42.686;23.364;2023-05-11T00:07:25;95224.59;;;11.33;75.54
20612;BME280;10465;42.686;23.364;2023-05-11T00:09:51;95164.47;;;10.98;74.85
20612;BME280;10465;42.686;23.364;2023-05-11T00:12:16;95212.75;;;11.31;74.65
20612;BME280;10465;42.686;23.364;2023-05-11T00:14:42;95196.09;;;11.17;74.30
20612;BME280;10465;42.686;23.364;2023-05-11T00:17:07;95195.63;;;11.14;74.07
20612;BME280;10465;42.686;23.364;2023-05-11T00:19:33;95176.84;;;11.02;74.17
20612;BME280;10465;42.686;23.364;2023-05-11T00:21:58;95221.63;;;11.26;73.69
20612;BME280;10465;42.686;23.364;2023-05-11T00:24:24;95229.13;;;11.33;73.65
20612;BME280;10465;42.686;23.364;2023-05-11T00:26:50;95221.00;;;11.29;73.55
20612;BME280;10465;42.686;23.364;2023-05-11T00:29:16;95227.88;;;11.30;73.59
20612;BME280;10465;42.686;23.364;2023-05-11T00:31:41;95223.63;;;11.29;73.84
20612;BME280;10465;42.686;23.364;2023-05-11T00:34:07;95231.06;;;11.19;72.96
20612;BME280;10465;42.686;23.364;2023-05-11T00:36:32;95231.53;;;11.21;72.96
20612;BME280;10465;42.686;23.364;2023-05-11T00:38:58;95230.28;;;11.18;72.92
20612;BME280;10465;42.686;23.364;2023-05-11T00:41:24;95222.31;;;11.18;73.09
20612;BME280;10465;42.686;23.364;2023-05-11T00:43:49;95225.84;;;11.13;73.49
20612;BME280;10465;42.686;23.364;2023-05-11T00:46:15;95236.16;;;11.15;73.07
20612;BME280;10465;42.686;23.364;2023-05-11T00:48:41;95232.53;;;11.11;73.03
20612;BME280;10465;42.686;23.364;2023-05-11T00:51:06;95205.22;;;10.88;72.64
20612;BME280;10465;42.686;23.364;2023-05-11T00:53:32;95227.34;;;11.06;73.00
20612;BME280;10465;42.686;23.364;2023-05-11T00:55:58;95234.03;;;11.03;72.96
20612;BME280;10465;42.686;23.364;2023-05-11T00:58:24;95194.16;;;10.72;71.84
20612;BME280;10465;42.686;23.364;2023-05-11T01:00:49;95177.72;;;10.61;72.86
20612;BME280;10465;42.686;23.364;2023-05-11T01:03:15;95210.44;;;10.79;72.73
20612;BME280;10465;42.686;23.364;2023-05-11T01:11:22;95219.34;;;10.83;72.24
20612;BME280;10465;42.686;23.364;2023-05-11T01:13:55;95221.69;;;10.85;72.22
20612;BME280;10465;42.686;23.364;2023-05-11T01:16:22;95222.59;;;10.80;71.98
20612;BME280;10465;42.686;23.364;2023-05-11T01:21:19;95198.78;;;10.67;71.08
20612;BME280;10465;42.686;23.364;2023-05-11T01:27:30;95202.63;;;10.47;71.32
20612;BME280;10465;42.686;23.364;2023-05-11T01:30:25;95228.50;;;10.63;71.82
20612;BME280;10465;42.686;23.364;2023-05-11T01:32:54;95181.44;;;10.33;72.56
20612;BME280;10465;42.686;23.364;2023-05-11T01:35:24;95225.25;;;10.67;71.99
20612;BME280;10465;42.686;23.364;2023-05-11T01:37:53;95232.03;;;10.59;72.64
20612;BME280;10465;42.686;23.364;2023-05-11T01:40:25;95235.56;;;10.68;72.63
20612;BME280;10465;42.686;23.364;2023-05-11T01:42:58;95238.97;;;10.69;71.99
20612;BME280;10465;42.686;23.364;2023-05-11T01:45:25;95241.63;;;10.69;72.26
20612;BME280;10465;42.686;23.364;2023-05-11T01:47:54;95135.41;;;10.06;72.38
20612;BME280;10465;42.686;23.364;2023-05-11T01:50:21;95204.59;;;10.55;72.15
20612;BME280;10465;42.686;23.364;2023-05-11T01:52:49;95234.78;;;10.68;71.73
20612;BME280;10465;42.686;23.364;2023-05-11T01:55:19;95234.56;;;10.64;71.71
20612;BME280;10465;42.686;23.364;2023-05-11T01:57:46;95221.34;;;10.50;72.14
20612;BME280;10465;42.686;23.364;2023-05-11T02:00:14;95234.88;;;10.62;72.46
20612;BME280;10465;42.686;23.364;2023-05-11T02:02:41;95230.38;;;10.63;71.95
20612;BME280;10465;42.686;23.364;2023-05-11T02:05:09;95237.91;;;10.70;72.48
20612;BME280;10465;42.686;23.364;2023-05-11T02:07:37;95227.91;;;10.67;71.52
20612;BME280;10465;42.686;23.364;2023-05-11T02:10:06;95222.44;;;10.63;71.59
20612;BME280;10465;42.686;23.364;2023-05-11T02:12:32;95231.53;;;10.71;71.88
20612;BME280;10465;42.686;23.364;2023-05-11T02:15:00;95192.44;;;10.40;72.67
20612;BME280;10465;42.686;23.364;2023-05-11T02:17:28;95232.00;;;10.73;72.42
20612;BME280;10465;42.686;23.364;2023-05-11T02:19:54;95186.56;;;10.43;71.98
20612;BME280;10465;42.686;23.364;2023-05-11T02:22:21;95234.38;;;10.74;71.64
20612;BME280;10465;42.686;23.364;2023-05-11T02:24:48;95234.38;;;10.74;71.96
20612;BME280;10465;42.686;23.364;2023-05-11T02:27:14;95227.81;;;10.72;72.51
20612;BME280;10465;42.686;23.364;2023-05-11T02:29:39;95227.91;;;10.67;72.23
20612;BME280;10465;42.686;23.364;2023-05-11T02:32:08;95160.69;;;10.26;72.18
20612;BME280;10465;42.686;23.364;2023-05-11T02:34:40;95198.50;;;10.54;72.20
20612;BME280;10465;42.686;23.364;2023-05-11T02:37:14;95152.63;;;10.18;72.43
20612;BME280;10465;42.686;23.364;2023-05-11T02:39:43;95227.59;;;10.68;72.48
20612;BME280;10465;42.686;23.364;2023-05-11T02:42:13;95226.25;;;10.71;72.63
20612;BME280;10465;42.686;23.364;2023-05-11T02:44:44;95187.22;;;10.49;72.60
20612;BME280;10465;42.686;23.364;2023-05-11T02:47:16;95189.19;;;10.43;72.05
20612;BME280;10465;42.686;23.364;2023-05-11T02:49:43;95217.44;;;10.61;72.09
20612;BME280;10465;42.686;23.364;2023-05-11T02:52:10;95212.63;;;10.63;72.74
20612;BME280;10465;42.686;23.364;2023-05-11T02:54:38;95198.91;;;10.48;72.72
20612;BME280;10465;42.686;23.364;2023-05-11T02:57:04;95156.66;;;10.15;72.89
20612;BME280;10465;42.686;23.364;2023-05-11T02:59:30;95200.69;;;10.38;72.82
20612;BME280;10465;42.686;23.364;2023-05-11T03:01:56;95217.31;;;10.53;73.74
20612;BME280;10465;42.686;23.364;2023-05-11T03:04:23;95196.47;;;10.37;73.73
20612;BME280;10465;42.686;23.364;2023-05-11T03:06:48;95218.41;;;10.38;74.09
20612;BME280;10465;42.686;23.364;2023-05-11T03:09:14;95134.59;;;9.78;73.70
20612;BME280;10465;42.686;23.364;2023-05-11T03:11:41;95213.72;;;10.35;73.83
20612;BME280;10465;42.686;23.364;2023-05-11T03:14:07;95184.84;;;10.20;74.29
20612;BME280;10465;42.686;23.364;2023-05-11T03:16:33;95220.28;;;10.37;74.29
20612;BME280;10465;42.686;23.364;2023-05-11T03:19:01;95215.19;;;10.27;74.45
20612;BME280;10465;42.686;23.364;2023-05-11T03:21:27;95215.47;;;10.26;73.97
20612;BME280;10465;42.686;23.364;2023-05-11T03:23:53;95193.69;;;10.01;74.77
20612;BME280;10465;42.686;23.364;2023-05-11T03:26:19;95220.13;;;10.15;74.65
20612;BME280;10465;42.686;23.364;2023-05-11T03:28:46;95220.44;;;10.13;75.18
20612;BME280;10465;42.686;23.364;2023-05-11T03:31:13;95197.28;;;9.91;75.52
20612;BME280;10465;42.686;23.364;2023-05-11T03:33:38;95229.53;;;10.07;75.55
20612;BME280;10465;42.686;23.364;2023-05-11T03:36:04;95205.91;;;9.97;75.46
20612;BME280;10465;42.686;23.364;2023-05-11T03:38:31;95165.59;;;9.59;76.19
20612;BME280;10465;42.686;23.364;2023-05-11T03:40:57;95220.34;;;10.05;76.23
20612;BME280;10465;42.686;23.364;2023-05-11T03:43:27;95207.97;;;10.00;75.60
20612;BME280;10465;42.686;23.364;2023-05-11T03:45:55;95220.25;;;10.10;75.67
20612;BME280;10465;42.686;23.364;2023-05-11T03:48:22;95228.94;;;10.10;76.33
20612;BME280;10465;42.686;23.364;2023-05-11T03:50:48;95199.25;;;9.86;76.68
20612;BME280;10465;42.686;23.364;2023-05-11T03:53:15;95233.75;;;10.08;76.19
20612;BME280;10465;42.686;23.364;2023-05-11T03:55:41;95235.53;;;10.13;76.87
20612;BME280;10465;42.686;23.364;2023-05-11T03:58:07;95236.78;;;10.15;76.97
20612;BME280;10465;42.686;23.364;2023-05-11T04:00:37;95239.44;;;10.15;77.52
20612;BME280;10465;42.686;23.364;2023-05-11T04:03:04;95212.47;;;10.00;76.76
20612;BME280;10465;42.686;23.364;2023-05-11T04:05:30;95227.28;;;10.01;77.37
20612;BME280;10465;42.686;23.364;2023-05-11T04:07:56;95214.22;;;9.90;77.34
20612;BME280;10465;42.686;23.364;2023-05-11T04:10:21;95185.13;;;9.77;77.73
20612;BME280;10465;42.686;23.364;2023-05-11T04:12:47;95240.81;;;10.13;77.98
20612;BME280;10465;42.686;23.364;2023-05-11T04:15:13;95190.81;;;9.84;78.26
20612;BME280;10465;42.686;23.364;2023-05-11T04:17:38;95245.03;;;10.14;77.81
20612;BME280;10465;42.686;23.364;2023-05-11T04:20:04;95226.97;;;10.02;78.74
20612;BME280;10465;42.686;23.364;2023-05-11T04:22:30;95213.84;;;9.97;78.34
20612;BME280;10465;42.686;23.364;2023-05-11T04:24:55;95181.78;;;9.71;78.84
20612;BME280;10465;42.686;23.364;2023-05-11T04:27:21;95232.84;;;9.99;78.71
20612;BME280;10465;42.686;23.364;2023-05-11T04:29:46;95245.59;;;10.11;78.96
20612;BME280;10465;42.686;23.364;2023-05-11T04:32:13;95253.75;;;10.14;79.21
20612;BME280;10465;42.686;23.364;2023-05-11T04:34:39;95259.03;;;10.14;78.84
20612;BME280;10465;42.686;23.364;2023-05-11T04:37:05;95256.75;;;10.08;79.65
20612;BME280;10465;42.686;23.364;2023-05-11T04:39:32;95258.25;;;10.14;79.57
20612;BME280;10465;42.686;23.364;2023-05-11T04:41:58;95256.88;;;10.16;79.87
20612;BME280;10465;42.686;23.364;2023-05-11T04:44:24;95226.47;;;10.00;79.79
20612;BME280;10465;42.686;23.364;2023-05-11T04:46:53;95260.13;;;10.13;79.68
20612;BME280;10465;42.686;23.364;2023-05-11T04:49:19;95252.91;;;10.00;79.75
20612;BME280;10465;42.686;23.364;2023-05-11T04:51:44;95237.06;;;10.00;80.62
20612;BME280;10465;42.686;23.364;2023-05-11T04:54:10;95260.50;;;10.07;80.35
20612;BME280;10465;42.686;23.364;2023-05-11T04:56:35;95245.88;;;9.96;80.33
20612;BME280;10465;42.686;23.364;2023-05-11T04:59:05;95234.03;;;9.93;80.44
20612;BME280;10465;42.686;23.364;2023-05-11T05:01:31;95260.59;;;10.15;80.10
20612;BME280;10465;42.686;23.364;2023-05-11T05:03:56;95207.53;;;9.79;80.25
20612;BME280;10465;42.686;23.364;2023-05-11T05:06:21;95269.25;;;10.21;80.36
20612;BME280;10465;42.686;23.364;2023-05-11T05:08:47;95236.38;;;9.95;80.21
20612;BME280;10465;42.686;23.364;2023-05-11T05:11:12;95086.78;;;9.01;80.52
20612;BME280;10465;42.686;23.364;2023-05-11T05:13:38;95271.53;;;10.28;80.45
20612;BME280;10465;42.686;23.364;2023-05-11T05:16:03;95234.72;;;9.99;80.14
20612;BME280;10465;42.686;23.364;2023-05-11T05:18:29;95279.97;;;10.30;80.17
20612;BME280;10465;42.686;23.364;2023-05-11T05:20:54;95245.41;;;10.07;80.49
20612;BME280;10465;42.686;23.364;2023-05-11T05:23:19;95277.38;;;10.25;80.27
20612;BME280;10465;42.686;23.364;2023-05-11T05:25:45;95267.75;;;10.15;80.60
20612;BME280;10465;42.686;23.364;2023-05-11T05:28:10;95271.69;;;10.18;80.74
20612;BME280;10465;42.686;23.364;2023-05-11T05:30:36;95284.75;;;10.28;80.85
20612;BME280;10465;42.686;23.364;2023-05-11T05:33:01;95279.75;;;10.26;80.27
20612;BME280;10465;42.686;23.364;2023-05-11T05:35:27;95274.47;;;10.26;80.15
20612;BME280;10465;42.686;23.364;2023-05-11T05:37:52;95249.91;;;10.07;80.60
20612;BME280;10465;42.686;23.364;2023-05-11T05:40:18;95283.50;;;10.39;80.23
20612;BME280;10465;42.686;23.364;2023-05-11T05:42:43;95280.84;;;10.39;80.37
20612;BME280;10465;42.686;23.364;2023-05-11T05:45:09;95272.47;;;10.18;79.86
20612;BME280;10465;42.686;23.364;2023-05-11T05:47:34;95290.56;;;10.30;79.40
20612;BME280;10465;42.686;23.364;2023-05-11T05:50:00;95289.25;;;10.27;79.60
20612;BME280;10465;42.686;23.364;2023-05-11T05:52:25;95269.41;;;10.11;80.49
20612;BME280;10465;42.686;23.364;2023-05-11T05:54:51;95283.06;;;10.18;80.33
20612;BME280;10465;42.686;23.364;2023-05-11T05:57:16;95302.91;;;10.15;80.26
20612;BME280;10465;42.686;23.364;2023-05-11T05:59:42;95305.00;;;10.19;80.46
20612;BME280;10465;42.686;23.364;2023-05-11T06:02:07;95279.78;;;10.07;80.74
20612;BME280;10465;42.686;23.364;2023-05-11T06:04:33;95277.69;;;9.90;80.92
20612;BME280;10465;42.686;23.364;2023-05-11T06:06:58;95314.00;;;10.18;80.53
20612;BME280;10465;42.686;23.364;2023-05-11T06:09:25;95286.25;;;10.01;80.31
20612;BME280;10465;42.686;23.364;2023-05-11T06:11:50;95312.94;;;10.19;80.54
20612;BME280;10465;42.686;23.364;2023-05-11T06:14:18;95312.31;;;10.08;81.43
20612;BME280;10465;42.686;23.364;2023-05-11T06:16:44;95277.38;;;9.92;81.44
20612;BME280;10465;42.686;23.364;2023-05-11T06:19:09;95316.25;;;10.10;80.81
20612;BME280;10465;42.686;23.364;2023-05-11T06:21:35;95249.72;;;9.71;80.59
20612;BME280;10465;42.686;23.364;2023-05-11T06:24:00;95232.75;;;9.58;80.78
20612;BME280;10465;42.686;23.364;2023-05-11T06:26:26;95258.84;;;9.78;80.60
20612;BME280;10465;42.686;23.364;2023-05-11T06:28:52;95330.09;;;10.21;80.00
20612;BME280;10465;42.686;23.364;2023-05-11T06:31:18;95327.16;;;10.23;80.43
20612;BME280;10465;42.686;23.364;2023-05-11T06:33:44;95320.66;;;10.15;80.87
20612;BME280;10465;42.686;23.364;2023-05-11T06:36:09;95328.22;;;10.22;80.54
20612;BME280;10465;42.686;23.364;2023-05-11T06:38:35;95325.63;;;10.03;80.30
20612;BME280;10465;42.686;23.364;2023-05-11T06:41:00;95334.66;;;10.15;79.85
20612;BME280;10465;42.686;23.364;2023-05-11T06:43:26;95327.94;;;10.23;79.49
20612;BME280;10465;42.686;23.364;2023-05-11T06:45:51;95306.88;;;10.18;79.24
20612;BME280;10465;42.686;23.364;2023-05-11T06:48:17;95335.53;;;10.30;78.90
20612;BME280;10465;42.686;23.364;2023-05-11T06:50:42;95328.72;;;10.24;78.39
20612;BME280;10465;42.686;23.364;2023-05-11T06:53:07;95311.06;;;10.19;78.51
20612;BME280;10465;42.686;23.364;2023-05-11T06:55:35;95332.78;;;10.35;78.43
20612;BME280;10465;42.686;23.364;2023-05-11T06:58:00;95322.69;;;10.37;77.83
20612;BME280;10465;42.686;23.364;2023-05-11T07:00:26;95289.59;;;10.21;77.78
20612;BME280;10465;42.686;23.364;2023-05-11T07:02:51;95325.38;;;10.51;76.88
20612;BME280;10465;42.686;23.364;2023-05-11T07:05:17;95328.00;;;10.51;76.99
20612;BME280;10465;42.686;23.364;2023-05-11T07:07:42;95276.19;;;10.17;76.76
20612;BME280;10465;42.686;23.364;2023-05-11T07:10:08;95326.84;;;10.57;77.05
20612;BME280;10465;42.686;23.364;2023-05-11T07:12:34;95329.41;;;10.62;76.85
20612;BME280;10465;42.686;23.364;2023-05-11T07:14:59;95311.75;;;10.57;77.00
20612;BME280;10465;42.686;23.364;2023-05-11T07:17:25;95331.66;;;10.69;76.29
20612;BME280;10465;42.686;23.364;2023-05-11T07:19:50;95317.16;;;10.66;75.04
20612;BME280;10465;42.686;23.364;2023-05-11T07:22:17;95329.91;;;10.78;75.36
20612;BME280;10465;42.686;23.364;2023-05-11T07:24:42;95329.03;;;10.82;74.37
20612;BME280;10465;42.686;23.364;2023-05-11T07:27:08;95327.56;;;10.90;73.37
20612;BME280;10465;42.686;23.364;2023-05-11T07:29:33;95258.59;;;10.40;73.01
20612;BME280;10465;42.686;23.364;2023-05-11T07:31:59;95330.19;;;11.04;72.37
20612;BME280;10465;42.686;23.364;2023-05-11T07:34:24;95301.66;;;10.59;71.88
20612;BME280;10465;42.686;23.364;2023-05-11T07:36:50;95307.34;;;10.67;73.17
20612;BME280;10465;42.686;23.364;2023-05-11T07:39:15;95331.19;;;10.94;72.16
20612;BME280;10465;42.686;23.364;2023-05-11T07:41:41;95330.84;;;11.09;71.99
20612;BME280;10465;42.686;23.364;2023-05-11T07:44:06;95331.03;;;11.27;71.40
20612;BME280;10465;42.686;23.364;2023-05-11T07:46:32;95333.00;;;11.35;69.73
20612;BME280;10465;42.686;23.364;2023-05-11T07:48:57;95315.22;;;11.35;69.38
20612;BME280;10465;42.686;23.364;2023-05-11T07:51:23;95310.47;;;11.46;68.30
20612;BME280;10465;42.686;23.364;2023-05-11T07:53:48;95327.97;;;11.70;68.84
20612;BME280;10465;42.686;23.364;2023-05-11T07:56:14;95334.84;;;11.71;68.01
20612;BME280;10465;42.686;23.364;2023-05-11T07:58:39;95328.16;;;11.87;68.07
20612;BME280;10465;42.686;23.364;2023-05-11T08:01:05;95317.06;;;11.85;68.23
20612;BME280;10465;42.686;23.364;2023-05-11T08:03:30;95304.88;;;11.70;68.96
20612;BME280;10465;42.686;23.364;2023-05-11T08:05:56;95328.16;;;11.87;69.90
20612;BME280;10465;42.686;23.364;2023-05-11T08:08:21;95344.00;;;12.01;68.22
20612;BME280;10465;42.686;23.364;2023-05-11T08:10:47;95337.16;;;12.00;66.49
20612;BME280;10465;42.686;23.364;2023-05-11T08:13:12;95334.09;;;12.15;66.88
20612;BME280;10465;42.686;23.364;2023-05-11T08:15:37;95340.00;;;12.34;67.09
20612;BME280;10465;42.686;23.364;2023-05-11T08:18:03;95324.84;;;12.35;65.40
20612;BME280;10465;42.686;23.364;2023-05-11T08:20:28;95334.13;;;12.46;65.44
20612;BME280;10465;42.686;23.364;2023-05-11T08:22:55;95324.28;;;12.47;65.63
20612;BME280;10465;42.686;23.364;2023-05-11T08:25:20;95337.06;;;12.36;65.84
20612;BME280;10465;42.686;23.364;2023-05-11T08:27:45;95332.06;;;12.43;66.78
20612;BME280;10465;42.686;23.364;2023-05-11T08:30:11;95308.25;;;12.52;66.07
20612;BME280;10465;42.686;23.364;2023-05-11T08:32:37;95338.78;;;12.72;65.81
20612;BME280;10465;42.686;23.364;2023-05-11T08:35:03;95327.09;;;12.73;64.93
20612;BME280;10465;42.686;23.364;2023-05-11T08:37:29;95342.03;;;12.60;64.79
20612;BME280;10465;42.686;23.364;2023-05-11T08:39:55;95337.88;;;12.76;64.57
20612;BME280;10465;42.686;23.364;2023-05-11T08:42:23;95327.44;;;12.89;64.76
20612;BME280;10465;42.686;23.364;2023-05-11T08:44:49;95342.78;;;13.00;64.21
20612;BME280;10465;42.686;23.364;2023-05-11T08:47:14;95310.41;;;12.90;63.36
20612;BME280;10465;42.686;23.364;2023-05-11T08:49:41;95315.69;;;12.81;63.24
20612;BME280;10465;42.686;23.364;2023-05-11T08:52:07;95334.69;;;13.05;62.91
20612;BME280;10465;42.686;23.364;2023-05-11T08:54:33;95328.09;;;12.94;63.48
20612;BME280;10465;42.686;23.364;2023-05-11T08:56:59;95313.06;;;12.90;63.42
20612;BME280;10465;42.686;23.364;2023-05-11T08:59:27;95343.13;;;13.07;63.85
20612;BME280;10465;42.686;23.364;2023-05-11T09:01:54;95331.25;;;13.05;64.65
20612;BME280;10465;42.686;23.364;2023-05-11T09:04:21;95335.13;;;12.99;64.79
20612;BME280;10465;42.686;23.364;2023-05-11T09:06:48;95269.31;;;12.47;65.91
20612;BME280;10465;42.686;23.364;2023-05-11T09:09:14;95318.69;;;12.88;65.88
20612;BME280;10465;42.686;23.364;2023-05-11T09:11:40;95326.19;;;12.55;66.63
20612;BME280;10465;42.686;23.364;2023-05-11T09:14:06;95325.97;;;12.74;67.39
20612;BME280;10465;42.686;23.364;2023-05-11T09:16:32;95325.41;;;12.85;66.85
20612;BME280;10465;42.686;23.364;2023-05-11T09:18:59;95331.06;;;12.93;66.13
20612;BME280;10465;42.686;23.364;2023-05-11T09:21:25;95320.56;;;12.87;65.88
20612;BME280;10465;42.686;23.364;2023-05-11T09:23:54;95324.66;;;12.94;66.86
20612;BME280;10465;42.686;23.364;2023-05-11T09:26:20;95325.94;;;13.05;66.05
20612;BME280;10465;42.686;23.364;2023-05-11T09:28:53;95332.13;;;12.92;65.14
20612;BME280;10465;42.686;23.364;2023-05-11T09:36:41;95329.75;;;12.73;67.56
20612;BME280;10465;42.686;23.364;2023-05-11T09:39:06;95324.44;;;12.73;66.81
20612;BME280;10465;42.686;23.364;2023-05-11T09:41:32;95304.75;;;12.43;66.97
20612;BME280;10465;42.686;23.364;2023-05-11T09:44:29;95332.44;;;12.50;67.40
20612;BME280;10465;42.686;23.364;2023-05-11T09:47:09;95329.13;;;12.45;67.97
20612;BME280;10465;42.686;23.364;2023-05-11T09:49:35;95328.56;;;12.56;67.99
20612;BME280;10465;42.686;23.364;2023-05-11T09:52:01;95310.34;;;12.32;67.84
20612;BME280;10465;42.686;23.364;2023-05-11T09:54:26;95305.72;;;12.16;68.00
20612;BME280;10465;42.686;23.364;2023-05-11T09:56:54;95315.66;;;12.32;68.91
20612;BME280;10465;42.686;23.364;2023-05-11T09:59:40;95276.00;;;12.36;67.89
20612;BME280;10465;42.686;23.364;2023-05-11T10:04:40;95277.97;;;12.61;67.03
20612;BME280;10465;42.686;23.364;2023-05-11T10:07:05;95301.03;;;12.92;66.66
20612;BME280;10465;42.686;23.364;2023-05-11T10:09:31;95300.47;;;13.13;66.49
20612;BME280;10465;42.686;23.364;2023-05-11T10:11:58;95259.94;;;12.98;65.38
20612;BME280;10465;42.686;23.364;2023-05-11T10:14:26;95292.88;;;13.46;64.34
20612;BME280;10465;42.686;23.364;2023-05-11T10:16:56;95295.06;;;13.35;63.62
20612;BME280;10465;42.686;23.364;2023-05-11T10:19:22;95273.56;;;13.05;64.08
20612;BME280;10465;42.686;23.364;2023-05-11T10:21:49;95281.59;;;13.40;64.35
20612;BME280;10465;42.686;23.364;2023-05-11T10:24:16;95267.69;;;13.43;63.31
20612;BME280;10465;42.686;23.364;2023-05-11T10:26:42;95232.94;;;13.22;62.72
20612;BME280;10465;42.686;23.364;2023-05-11T10:29:08;95263.16;;;12.69;64.69
20612;BME280;10465;42.686;23.364;2023-05-11T10:31:34;95218.09;;;12.47;64.80
20612;BME280;10465;42.686;23.364;2023-05-11T10:34:02;95264.66;;;13.01;65.76
20612;BME280;10465;42.686;23.364;2023-05-11T10:36:29;95263.31;;;13.30;64.24
20612;BME280;10465;42.686;23.364;2023-05-11T10:38:54;95274.56;;;13.53;63.59
20612;BME280;10465;42.686;23.364;2023-05-11T10:46:36;95255.47;;;13.85;62.00
20612;BME280;10465;42.686;23.364;2023-05-11T10:52:33;95274.72;;;13.82;61.48
20612;BME280;10465;42.686;23.364;2023-05-11T10:55:11;95262.69;;;13.50;62.21
20612;BME280;10465;42.686;23.364;2023-05-11T10:58:12;95275.66;;;13.87;62.26
20612;BME280;10465;42.686;23.364;2023-05-11T11:03:13;95236.09;;;13.42;62.85
20612;BME280;10465;42.686;23.364;2023-05-11T11:05:40;95257.31;;;13.85;62.81
20612;BME280;10465;42.686;23.364;2023-05-11T11:08:08;95273.28;;;14.02;62.95
20612;BME280;10465;42.686;23.364;2023-05-11T11:10:38;95270.78;;;14.06;61.50
20612;BME280;10465;42.686;23.364;2023-05-11T11:13:08;95269.03;;;14.10;61.65
20612;BME280;10465;42.686;23.364;2023-05-11T11:18:26;95263.16;;;14.34;61.01
20612;BME280;10465;42.686;23.364;2023-05-11T11:20:53;95248.00;;;14.34;59.97
20612;BME280;10465;42.686;23.364;2023-05-11T11:26:04;95248.41;;;13.81;61.13
20612;BME280;10465;42.686;23.364;2023-05-11T11:33:54;95249.69;;;13.75;62.27
20612;BME280;10465;42.686;23.364;2023-05-11T11:39:22;95239.03;;;13.83;62.04
20612;BME280;10465;42.686;23.364;2023-05-11T11:42:06;95260.78;;;13.85;62.44
20612;BME280;10465;42.686;23.364;2023-05-11T11:44:36;95257.91;;;14.17;61.91
20612;BME280;10465;42.686;23.364;2023-05-11T11:47:18;95247.19;;;14.34;60.34
20612;BME280;10465;42.686;23.364;2023-05-11T11:52:13;95235.25;;;14.40;59.83
20612;BME280;10465;42.686;23.364;2023-05-11T11:54:40;95252.06;;;14.32;59.12
20612;BME280;10465;42.686;23.364;2023-05-11T12:00:05;95241.50;;;14.53;59.60
20612;BME280;10465;42.686;23.364;2023-05-11T12:02:33;95245.72;;;14.54;59.48
20612;BME280;10465;42.686;23.364;2023-05-11T12:05:09;95235.69;;;14.59;60.12
20612;BME280;10465;42.686;23.364;2023-05-11T12:07:40;95239.63;;;14.53;60.01
20612;BME280;10465;42.686;23.364;2023-05-11T12:10:06;95243.06;;;13.98;61.23
20612;BME280;10465;42.686;23.364;2023-05-11T12:12:32;95234.50;;;13.75;62.34
20612;BME280;10465;42.686;23.364;2023-05-11T12:14:59;95246.53;;;13.90;62.37
20612;BME280;10465;42.686;23.364;2023-05-11T12:17:27;95159.28;;;13.31;62.07
20612;BME280;10465;42.686;23.364;2023-05-11T12:20:16;95255.03;;;13.57;63.47
20612;BME280;10465;42.686;23.364;2023-05-11T12:22:42;95250.47;;;13.32;63.62
20612;BME280;10465;42.686;23.364;2023-05-11T12:25:09;95233.75;;;13.31;63.98
20612;BME280;10465;42.686;23.364;2023-05-11T12:27:56;95242.72;;;12.96;65.02
20612;BME280;10465;42.686;23.364;2023-05-11T12:30:27;95227.13;;;13.20;65.35
20612;BME280;10465;42.686;23.364;2023-05-11T12:32:53;95222.31;;;13.57;64.75
20612;BME280;10465;42.686;23.364;2023-05-11T12:35:23;95227.03;;;13.34;63.83
20612;BME280;10465;42.686;23.364;2023-05-11T12:37:50;95192.28;;;13.13;64.59
20612;BME280;10465;42.686;23.364;2023-05-11T12:40:16;95214.81;;;13.42;63.63
20612;BME280;10465;42.686;23.364;2023-05-11T12:42:54;95206.81;;;13.16;64.01
20612;BME280;10465;42.686;23.364;2023-05-11T12:45:20;95192.28;;;13.22;64.35
20612;BME280;10465;42.686;23.364;2023-05-11T12:47:48;95203.25;;;13.29;64.51
20612;BME280;10465;42.686;23.364;2023-05-11T12:50:14;95183.19;;;13.05;64.85
20612;BME280;10465;42.686;23.364;2023-05-11T12:52:40;95181.50;;;13.27;64.17
20612;BME280;10465;42.686;23.364;2023-05-11T12:55:06;95171.63;;;13.36;63.32
20612;BME280;10465;42.686;23.364;2023-05-11T12:57:31;95190.41;;;13.48;64.21
20612;BME280;10465;42.686;23.364;2023-05-11T13:00:24;95191.34;;;13.35;63.51
20612;BME280;10465;42.686;23.364;2023-05-11T13:05:17;95195.50;;;12.84;66.04
20612;BME280;10465;42.686;23.364;2023-05-11T13:07:43;95183.50;;;12.86;66.27
20612;BME280;10465;42.686;23.364;2023-05-11T13:10:11;95179.44;;;12.80;65.47
20612;BME280;10465;42.686;23.364;2023-05-11T13:12:48;95120.84;;;12.68;65.19
20612;BME280;10465;42.686;23.364;2023-05-11T13:15:14;95159.56;;;12.78;65.06
20612;BME280;10465;42.686;23.364;2023-05-11T13:17:41;95186.47;;;12.94;66.68
20612;BME280;10465;42.686;23.364;2023-05-11T13:22:41;95179.28;;;13.03;65.36
20612;BME280;10465;42.686;23.364;2023-05-11T13:25:07;95147.84;;;12.79;65.23
20612;BME280;10465;42.686;23.364;2023-05-11T13:27:36;95150.22;;;12.98;65.54
20612;BME280;10465;42.686;23.364;2023-05-11T13:30:03;95148.50;;;12.93;65.94
20612;BME280;10465;42.686;23.364;2023-05-11T13:32:29;95161.47;;;13.38;65.52
20612;BME280;10465;42.686;23.364;2023-05-11T13:34:55;95170.84;;;13.53;64.54
20612;BME280;10465;42.686;23.364;2023-05-11T13:37:20;95158.66;;;13.17;64.22
20612;BME280;10465;42.686;23.364;2023-05-11T13:39:46;95182.88;;;13.16;64.52
20612;BME280;10465;42.686;23.364;2023-05-11T13:42:11;95176.94;;;13.19;64.38
20612;BME280;10465;42.686;23.364;2023-05-11T13:44:37;95173.50;;;13.09;65.34